sensor_id;sensor_type;location;lat;lon;timestamp;pressure;altitude;pressure_sealevel;temperature;humidity
23679;BME280;12016;51.668;6.874;2023-03-18T00:00:09;100556.72;;;13.26;64.17
23679;BME280;12016;51.668;6.874;2023-03-18T00:06:13;100557.31;;;13.32;64.35
23679;BME280;12016;51.668;6.874;2023-03-18T00:12:16;100562.03;;;13.22;64.86
23679;BME280;12016;51.668;6.874;2023-03-18T00:18:18;100555.88;;;13.13;65.39
23679;BME280;12016;51.668;6.874;2023-03-18T00:24:20;100560.38;;;13.09;65.44
23679;BME280;12016;51.668;6.874;2023-03-18T00:30:22;100543.25;;;13.05;65.42
23679;BME280;12016;51.668;6.874;2023-03-18T00:36:24;100560.22;;;12.94;65.56
23679;BME280;12016;51.668;6.874;2023-03-18T00:42:26;100576.16;;;12.86;65.81
23679;BME280;12016;51.668;6.874;2023-03-18T00:48:36;100571.53;;;12.87;65.58
23679;BME280;12016;51.668;6.874;2023-03-18T00:54:38;100582.31;;;12.75;65.57
23679;BME280;12016;51.668;6.874;2023-03-18T01:00:40;100576.66;;;12.68;65.89
23679;BME280;12016;51.668;6.874;2023-03-18T01:06:42;100571.38;;;12.71;65.65
23679;BME280;12016;51.668;6.874;2023-03-18T01:12:44;100554.56;;;12.66;65.91
23679;BME280;12016;51.668;6.874;2023-03-18T01:18:47;100551.53;;;12.67;66.21
23679;BME280;12016;51.668;6.874;2023-03-18T01:24:49;100569.13;;;12.52;66.37
23679;BME280;12016;51.668;6.874;2023-03-18T01:31:00;100581.44;;;12.41;66.76
23679;BME280;12016;51.668;6.874;2023-03-18T01:37:02;100581.13;;;12.43;66.74
23679;BME280;12016;51.668;6.874;2023-03-18T01:55:16;100592.41;;;12.45;66.61
23679;BME280;12016;51.668;6.874;2023-03-18T02:07:41;100588.28;;;12.60;66.92
23679;BME280;12016;51.668;6.874;2023-03-18T02:13:43;100573.47;;;12.66;66.37
23679;BME280;12016;51.668;6.874;2023-03-18T02:19:49;100574.94;;;12.63;67.23
23679;BME280;12016;51.668;6.874;2023-03-18T02:32:18;100577.31;;;12.65;69.25
23679;BME280;12016;51.668;6.874;2023-03-18T02:38:21;100583.56;;;12.57;70.05
23679;BME280;12016;51.668;6.874;2023-03-18T02:44:23;100597.41;;;12.55;70.25
23679;BME280;12016;51.668;6.874;2023-03-18T02:50:44;100601.47;;;12.40;72.07
23679;BME280;12016;51.668;6.874;2023-03-18T02:56:47;100598.03;;;12.31;72.78
23679;BME280;12016;51.668;6.874;2023-03-18T03:02:50;100590.41;;;12.33;73.30
23679;BME280;12016;51.668;6.874;2023-03-18T03:09:16;100593.84;;;12.42;72.77
23679;BME280;12016;51.668;6.874;2023-03-18T03:15:18;100603.63;;;12.47;72.82
23679;BME280;12016;51.668;6.874;2023-03-18T03:21:27;100604.44;;;12.47;72.59
23679;BME280;12016;51.668;6.874;2023-03-18T03:27:29;100610.44;;;12.53;72.00
23679;BME280;12016;51.668;6.874;2023-03-18T03:33:31;100615.59;;;12.67;71.25
23679;BME280;12016;51.668;6.874;2023-03-18T03:39:33;100624.28;;;12.72;70.63
23679;BME280;12016;51.668;6.874;2023-03-18T03:45:35;100618.78;;;12.69;70.70
23679;BME280;12016;51.668;6.874;2023-03-18T03:51:38;100622.31;;;12.61;70.65
23679;BME280;12016;51.668;6.874;2023-03-18T03:57:40;100637.63;;;12.57;70.62
23679;BME280;12016;51.668;6.874;2023-03-18T04:03:42;100638.75;;;12.47;71.18
23679;BME280;12016;51.668;6.874;2023-03-18T04:09:45;100642.78;;;12.41;71.31
23679;BME280;12016;51.668;6.874;2023-03-18T04:15:47;100639.94;;;12.37;71.29
23679;BME280;12016;51.668;6.874;2023-03-18T04:21:52;100649.03;;;12.33;71.36
23679;BME280;12016;51.668;6.874;2023-03-18T04:27:55;100642.69;;;12.29;72.09
23679;BME280;12016;51.668;6.874;2023-03-18T04:33:57;100652.09;;;12.23;72.56
23679;BME280;12016;51.668;6.874;2023-03-18T04:40:00;100659.38;;;12.31;71.85
23679;BME280;12016;51.668;6.874;2023-03-18T04:46:03;100656.00;;;12.34;72.33
23679;BME280;12016;51.668;6.874;2023-03-18T04:52:06;100656.66;;;12.31;72.69
23679;BME280;12016;51.668;6.874;2023-03-18T04:58:10;100667.78;;;12.29;73.06
23679;BME280;12016;51.668;6.874;2023-03-18T05:04:16;100676.47;;;12.43;72.13
23679;BME280;12016;51.668;6.874;2023-03-18T05:10:24;100676.97;;;12.37;73.19
23679;BME280;12016;51.668;6.874;2023-03-18T05:16:49;100679.72;;;12.28;73.69
23679;BME280;12016;51.668;6.874;2023-03-18T05:22:52;100692.09;;;12.29;73.69
23679;BME280;12016;51.668;6.874;2023-03-18T05:29:17;100682.72;;;12.27;74.65
23679;BME280;12016;51.668;6.874;2023-03-18T05:35:38;100690.19;;;11.92;78.39
23679;BME280;12016;51.668;6.874;2023-03-18T05:41:40;100695.56;;;11.83;79.72
23679;BME280;12016;51.668;6.874;2023-03-18T05:47:44;100693.34;;;11.85;79.79
23679;BME280;12016;51.668;6.874;2023-03-18T05:53:47;100699.06;;;11.92;79.30
23679;BME280;12016;51.668;6.874;2023-03-18T05:59:56;100701.94;;;11.87;80.15
23679;BME280;12016;51.668;6.874;2023-03-18T06:06:00;100724.03;;;11.80;80.42
23679;BME280;12016;51.668;6.874;2023-03-18T06:12:02;100720.97;;;11.91;80.09
23679;BME280;12016;51.668;6.874;2023-03-18T06:18:05;100722.22;;;12.02;79.15
23679;BME280;12016;51.668;6.874;2023-03-18T06:24:06;100717.47;;;11.81;80.35
23679;BME280;12016;51.668;6.874;2023-03-18T06:30:10;100724.94;;;11.93;80.13
23679;BME280;12016;51.668;6.874;2023-03-18T06:36:13;100740.03;;;11.94;79.78
23679;BME280;12016;51.668;6.874;2023-03-18T06:42:23;100747.09;;;12.16;79.23
23679;BME280;12016;51.668;6.874;2023-03-18T06:48:32;100755.22;;;12.16;78.60
23679;BME280;12016;51.668;6.874;2023-03-18T06:54:35;100754.38;;;12.24;78.83
23679;BME280;12016;51.668;6.874;2023-03-18T07:00:37;100760.22;;;12.35;78.51
23679;BME280;12016;51.668;6.874;2023-03-18T07:06:46;100760.06;;;12.40;77.81
23679;BME280;12016;51.668;6.874;2023-03-18T07:12:49;100758.16;;;12.40;78.09
23679;BME280;12016;51.668;6.874;2023-03-18T07:18:53;100762.91;;;12.43;77.75
23679;BME280;12016;51.668;6.874;2023-03-18T07:24:55;100777.81;;;12.49;77.75
23679;BME280;12016;51.668;6.874;2023-03-18T07:30:57;100776.03;;;12.53;77.65
23679;BME280;12016;51.668;6.874;2023-03-18T07:36:58;100789.84;;;12.61;76.74
23679;BME280;12016;51.668;6.874;2023-03-18T07:43:00;100800.56;;;12.78;76.45
23679;BME280;12016;51.668;6.874;2023-03-18T07:49:02;100808.47;;;12.92;75.91
23679;BME280;12016;51.668;6.874;2023-03-18T07:55:03;100807.19;;;12.89;75.52
23679;BME280;12016;51.668;6.874;2023-03-18T08:01:05;100799.06;;;12.98;75.05
23679;BME280;12016;51.668;6.874;2023-03-18T08:07:08;100798.19;;;13.06;75.53
23679;BME280;12016;51.668;6.874;2023-03-18T08:13:10;100802.03;;;13.05;74.48
23679;BME280;12016;51.668;6.874;2023-03-18T08:19:13;100806.78;;;13.08;74.46
23679;BME280;12016;51.668;6.874;2023-03-18T08:25:15;100810.94;;;13.35;73.66
23679;BME280;12016;51.668;6.874;2023-03-18T08:31:17;100824.06;;;13.45;72.71
23679;BME280;12016;51.668;6.874;2023-03-18T08:37:19;100838.06;;;13.68;71.64
23679;BME280;12016;51.668;6.874;2023-03-18T08:43:21;100842.22;;;13.86;70.39
23679;BME280;12016;51.668;6.874;2023-03-18T08:49:23;100843.91;;;14.11;69.86
23679;BME280;12016;51.668;6.874;2023-03-18T08:55:29;100858.56;;;14.10;68.75
23679;BME280;12016;51.668;6.874;2023-03-18T09:01:33;100849.28;;;13.99;68.81
23679;BME280;12016;51.668;6.874;2023-03-18T09:07:34;100854.47;;;14.04;69.03
23679;BME280;12016;51.668;6.874;2023-03-18T09:13:36;100859.38;;;14.11;68.39
23679;BME280;12016;51.668;6.874;2023-03-18T09:19:39;100852.16;;;14.15;68.21
23679;BME280;12016;51.668;6.874;2023-03-18T09:25:41;100859.13;;;14.16;67.71
23679;BME280;12016;51.668;6.874;2023-03-18T09:31:46;100854.81;;;14.36;66.98
23679;BME280;12016;51.668;6.874;2023-03-18T09:37:47;100847.44;;;14.69;67.09
23679;BME280;12016;51.668;6.874;2023-03-18T09:56:02;100869.25;;;15.98;61.04
23679;BME280;12016;51.668;6.874;2023-03-18T10:02:13;100881.03;;;15.62;60.77
23679;BME280;12016;51.668;6.874;2023-03-18T10:32:45;100868.75;;;17.11;57.37
23679;BME280;12016;51.668;6.874;2023-03-18T10:38:51;100872.41;;;17.69;55.00
23679;BME280;12016;51.668;6.874;2023-03-18T10:45:06;100858.50;;;18.13;54.13
23679;BME280;12016;51.668;6.874;2023-03-18T10:57:14;100866.81;;;25.94;35.40
23679;BME280;12016;51.668;6.874;2023-03-18T11:03:21;100854.75;;;26.65;33.10
23679;BME280;12016;51.668;6.874;2023-03-18T11:09:29;100861.13;;;24.99;37.22
23679;BME280;12016;51.668;6.874;2023-03-18T11:15:36;100851.44;;;22.92;40.73
23679;BME280;12016;51.668;6.874;2023-03-18T11:21:41;100830.13;;;25.63;37.18
23679;BME280;12016;51.668;6.874;2023-03-18T11:27:44;100820.72;;;30.19;29.54
23679;BME280;12016;51.668;6.874;2023-03-18T11:33:46;100824.78;;;29.06;30.78
23679;BME280;12016;51.668;6.874;2023-03-18T11:39:48;100819.28;;;33.92;24.67
23679;BME280;12016;51.668;6.874;2023-03-18T11:45:55;100805.97;;;35.89;22.15
23679;BME280;12016;51.668;6.874;2023-03-18T11:58:15;100814.94;;;35.19;22.27
23679;BME280;12016;51.668;6.874;2023-03-18T12:16:39;100809.81;;;28.71;28.31
23679;BME280;12016;51.668;6.874;2023-03-18T12:22:52;100807.22;;;28.48;30.68
23679;BME280;12016;51.668;6.874;2023-03-18T12:35:06;100787.66;;;35.29;19.69
23679;BME280;12016;51.668;6.874;2023-03-18T12:41:17;100826.22;;;27.38;28.86
23679;BME280;12016;51.668;6.874;2023-03-18T12:47:34;100807.88;;;28.03;27.92
23679;BME280;12016;51.668;6.874;2023-03-18T12:53:41;100803.91;;;26.36;30.06
23679;BME280;12016;51.668;6.874;2023-03-18T12:59:47;100801.16;;;23.12;34.92
23679;BME280;12016;51.668;6.874;2023-03-18T13:06:01;100807.34;;;21.96;38.86
23679;BME280;12016;51.668;6.874;2023-03-18T13:12:09;100806.69;;;22.70;36.88
23679;BME280;12016;51.668;6.874;2023-03-18T13:18:18;100799.25;;;22.95;36.93
23679;BME280;12016;51.668;6.874;2023-03-18T13:30:27;100798.81;;;21.21;39.65
23679;BME280;12016;51.668;6.874;2023-03-18T13:42:44;100805.97;;;19.37;44.06
23679;BME280;12016;51.668;6.874;2023-03-18T13:48:47;100794.91;;;19.26;44.51
23679;BME280;12016;51.668;6.874;2023-03-18T13:54:50;100780.97;;;19.35;44.94
23679;BME280;12016;51.668;6.874;2023-03-18T14:07:13;100777.13;;;19.10;46.41
23679;BME280;12016;51.668;6.874;2023-03-18T14:13:24;100776.16;;;18.95;46.65
23679;BME280;12016;51.668;6.874;2023-03-18T14:19:26;100759.97;;;18.83;47.15
23679;BME280;12016;51.668;6.874;2023-03-18T14:25:37;100761.31;;;18.47;48.38
23679;BME280;12016;51.668;6.874;2023-03-18T14:50:03;100819.75;;;14.18;77.72
23679;BME280;12016;51.668;6.874;2023-03-18T14:56:15;100806.31;;;14.67;78.45
23679;BME280;12016;51.668;6.874;2023-03-18T15:02:25;100806.25;;;15.52;75.84
23679;BME280;12016;51.668;6.874;2023-03-18T15:08:29;100803.47;;;16.64;71.53
23679;BME280;12016;51.668;6.874;2023-03-18T15:14:48;100799.59;;;16.33;71.62
23679;BME280;12016;51.668;6.874;2023-03-18T15:20:50;100470.28;;;14.30;71.15
23679;BME280;12016;51.668;6.874;2023-03-18T15:33:15;100780.78;;;16.13;71.32
23679;BME280;12016;51.668;6.874;2023-03-18T15:39:32;100780.34;;;16.11;70.37
23679;BME280;12016;51.668;6.874;2023-03-18T15:45:34;100790.22;;;16.03;70.79
23679;BME280;12016;51.668;6.874;2023-03-18T15:51:43;100793.59;;;17.06;69.97
23679;BME280;12016;51.668;6.874;2023-03-18T15:57:48;100774.50;;;17.41;67.68
23679;BME280;12016;51.668;6.874;2023-03-18T16:03:53;100775.47;;;17.49;68.23
23679;BME280;12016;51.668;6.874;2023-03-18T16:09:55;100775.59;;;17.02;68.27
23679;BME280;12016;51.668;6.874;2023-03-18T16:15:56;100778.09;;;17.26;68.68
23679;BME280;12016;51.668;6.874;2023-03-18T16:21:58;100794.03;;;17.63;68.17
23679;BME280;12016;51.668;6.874;2023-03-18T16:28:00;100787.13;;;17.30;66.52
23679;BME280;12016;51.668;6.874;2023-03-18T16:34:04;100794.06;;;17.28;68.02
23679;BME280;12016;51.668;6.874;2023-03-18T16:40:13;100790.41;;;17.20;67.34
23679;BME280;12016;51.668;6.874;2023-03-18T16:46:17;100793.78;;;17.33;68.34
23679;BME280;12016;51.668;6.874;2023-03-18T16:52:19;100591.75;;;15.96;68.40
23679;BME280;12016;51.668;6.874;2023-03-18T16:58:22;100796.72;;;17.24;67.64
23679;BME280;12016;51.668;6.874;2023-03-18T17:04:26;100798.88;;;16.99;68.35
23679;BME280;12016;51.668;6.874;2023-03-18T17:10:31;100800.47;;;16.85;68.59
23679;BME280;12016;51.668;6.874;2023-03-18T17:16:34;100811.19;;;16.77;68.70
23679;BME280;12016;51.668;6.874;2023-03-18T17:22:36;100803.22;;;16.69;68.31
23679;BME280;12016;51.668;6.874;2023-03-18T17:28:38;100808.22;;;16.67;69.33
23679;BME280;12016;51.668;6.874;2023-03-18T17:34:50;100810.03;;;16.63;69.40
23679;BME280;12016;51.668;6.874;2023-03-18T17:40:52;100807.66;;;16.46;69.02
23679;BME280;12016;51.668;6.874;2023-03-18T17:46:56;100804.91;;;16.30;69.23
23679;BME280;12016;51.668;6.874;2023-03-18T17:52:58;100812.03;;;15.91;70.49
23679;BME280;12016;51.668;6.874;2023-03-18T17:59:00;100808.28;;;15.67;70.66
23679;BME280;12016;51.668;6.874;2023-03-18T18:05:05;100812.63;;;15.56;71.48
23679;BME280;12016;51.668;6.874;2023-03-18T18:11:13;100804.66;;;15.51;70.79
23679;BME280;12016;51.668;6.874;2023-03-18T18:17:18;100807.06;;;15.41;71.23
23679;BME280;12016;51.668;6.874;2023-03-18T18:23:22;100816.56;;;15.34;71.24
23679;BME280;12016;51.668;6.874;2023-03-18T18:29:26;100823.84;;;15.18;71.29
23679;BME280;12016;51.668;6.874;2023-03-18T18:35:34;100820.72;;;14.92;71.46
23679;BME280;12016;51.668;6.874;2023-03-18T18:41:36;100827.59;;;14.89;70.66
23679;BME280;12016;51.668;6.874;2023-03-18T18:47:38;100831.88;;;14.78;71.42
23679;BME280;12016;51.668;6.874;2023-03-18T18:53:40;100824.75;;;14.74;71.25
23679;BME280;12016;51.668;6.874;2023-03-18T18:59:43;100829.97;;;14.79;70.61
23679;BME280;12016;51.668;6.874;2023-03-18T19:05:46;100827.25;;;14.79;70.50
23679;BME280;12016;51.668;6.874;2023-03-18T19:11:49;100834.47;;;14.75;70.33
23679;BME280;12016;51.668;6.874;2023-03-18T19:17:52;100843.06;;;14.64;70.15
23679;BME280;12016;51.668;6.874;2023-03-18T19:23:53;100840.00;;;14.54;70.12
23679;BME280;12016;51.668;6.874;2023-03-18T19:29:57;100847.41;;;14.45;69.89
23679;BME280;12016;51.668;6.874;2023-03-18T19:35:58;100841.72;;;14.38;70.61
23679;BME280;12016;51.668;6.874;2023-03-18T19:42:00;100845.44;;;14.33;69.92
23679;BME280;12016;51.668;6.874;2023-03-18T19:48:02;100850.63;;;14.26;69.65
23679;BME280;12016;51.668;6.874;2023-03-18T19:54:11;100862.66;;;14.16;70.00
23679;BME280;12016;51.668;6.874;2023-03-18T20:00:23;100867.28;;;14.16;69.68
23679;BME280;12016;51.668;6.874;2023-03-18T20:06:25;100864.50;;;14.04;69.98
23679;BME280;12016;51.668;6.874;2023-03-18T20:12:30;100867.56;;;13.81;70.26
23679;BME280;12016;51.668;6.874;2023-03-18T20:18:33;100877.94;;;13.79;70.30
23679;BME280;12016;51.668;6.874;2023-03-18T20:24:35;100874.66;;;13.74;70.53
23679;BME280;12016;51.668;6.874;2023-03-18T20:30:38;100883.91;;;13.73;70.29
23679;BME280;12016;51.668;6.874;2023-03-18T20:36:41;100873.31;;;13.59;70.51
23679;BME280;12016;51.668;6.874;2023-03-18T20:42:42;100885.13;;;13.54;69.79
23679;BME280;12016;51.668;6.874;2023-03-18T20:48:44;100881.41;;;13.38;70.29
23679;BME280;12016;51.668;6.874;2023-03-18T20:54:46;100887.81;;;13.34;70.10
23679;BME280;12016;51.668;6.874;2023-03-18T21:00:50;100896.09;;;13.29;70.43
23679;BME280;12016;51.668;6.874;2023-03-18T21:06:52;100895.03;;;13.21;71.34
23679;BME280;12016;51.668;6.874;2023-03-18T21:12:54;100896.63;;;13.22;71.10
23679;BME280;12016;51.668;6.874;2023-03-18T21:18:56;100899.00;;;13.23;70.57
23679;BME280;12016;51.668;6.874;2023-03-18T21:24:57;100901.25;;;13.21;70.30
23679;BME280;12016;51.668;6.874;2023-03-18T21:30:59;100895.72;;;13.01;69.69
23679;BME280;12016;51.668;6.874;2023-03-18T21:37:02;100893.22;;;12.96;69.87
23679;BME280;12016;51.668;6.874;2023-03-18T21:43:23;100892.78;;;12.85;69.54
23679;BME280;12016;51.668;6.874;2023-03-18T21:49:26;100886.66;;;13.05;68.98
23679;BME280;12016;51.668;6.874;2023-03-18T21:55:28;100894.22;;;13.12;68.90
23679;BME280;12016;51.668;6.874;2023-03-18T22:01:32;100907.16;;;13.06;68.77
23679;BME280;12016;51.668;6.874;2023-03-18T22:07:34;100913.84;;;13.00;68.31
23679;BME280;12016;51.668;6.874;2023-03-18T22:13:36;100912.22;;;12.70;68.39
23679;BME280;12016;51.668;6.874;2023-03-18T22:19:38;100882.66;;;12.65;68.71
23679;BME280;12016;51.668;6.874;2023-03-18T22:25:40;100876.75;;;12.71;68.58
23679;BME280;12016;51.668;6.874;2023-03-18T22:31:42;100877.94;;;12.91;68.31
23679;BME280;12016;51.668;6.874;2023-03-18T22:37:44;100863.50;;;12.87;68.02
23679;BME280;12016;51.668;6.874;2023-03-18T22:43:46;100860.94;;;12.91;68.35
23679;BME280;12016;51.668;6.874;2023-03-18T22:49:48;100865.66;;;13.02;68.20
23679;BME280;12016;51.668;6.874;2023-03-18T22:55:54;100871.22;;;13.06;68.55
23679;BME280;12016;51.668;6.874;2023-03-18T23:01:57;100870.88;;;13.16;68.04
23679;BME280;12016;51.668;6.874;2023-03-18T23:08:00;100874.19;;;13.21;67.88
23679;BME280;12016;51.668;6.874;2023-03-18T23:14:02;100878.00;;;13.20;67.32
23679;BME280;12016;51.668;6.874;2023-03-18T23:20:04;100878.00;;;13.20;67.39
23679;BME280;12016;51.668;6.874;2023-03-18T23:26:06;100882.31;;;13.21;67.26
23679;BME280;12016;51.668;6.874;2023-03-18T23:32:08;100878.34;;;13.10;67.85
23679;BME280;12016;51.668;6.874;2023-03-18T23:38:10;100876.44;;;13.19;67.62
23679;BME280;12016;51.668;6.874;2023-03-18T23:44:12;100886.78;;;13.09;67.67
23679;BME280;12016;51.668;6.874;2023-03-18T23:50:14;100894.31;;;12.95;67.51
23679;BME280;12016;51.668;6.874;2023-03-18T23:56:16;100916.56;;;13.00;67.89
